Terminal Aerodrome Forecast
Issued by NWS Corpus Christi, TX

Current Version | Previous Version | Text Only | Print | Product List | Glossary On
Versions: 1 2 3 4 5 6 7 8 9 10 11 12 13 14 15 16 17 18
202
FTUS44 KCRP 241734
TAFCRP
TAF
KCRP 241734Z 2418/2518 35012G17KT P6SM SKC
     FM250000 01009KT P6SM SKC
     FM250700 04013G18KT P6SM SKC=

USA.gov is the U.S. government's official web portal to all federal, state and local government web resources and services.